Time;durP1;ratioP1;P1;durP2;ratioP2;P2;SDS_P1;SDS_P2;PMS_P1;PMS_P2;Temp;Humidity;BMP_temperature;BMP_pressure;BME280_temperature;BME280_humidity;BME280_pressure;Samples;Min_cycle;Max_cycle;Signal;HPM_P1;HPM_P2
2023/06/15 00:00:52;;;;;;;4.57;2.58;;;;;;;19.46;48.67;101716.84;5307629;28;20027;-69
2023/06/15 00:03:25;;;;;;;5.80;3.35;;;;;;;19.46;48.82;101716.84;5311619;28;20043;-69
2023/06/15 00:05:56;;;;;;;5.90;3.30;;;;;;;19.33;49.12;101712.03;5313326;28;20111;-69
2023/06/15 00:08:28;;;;;;;4.63;3.20;;;;;;;19.34;48.79;101718.19;5311814;28;20037;-69
2023/06/15 00:10:59;;;;;;;4.47;2.97;;;;;;;19.35;49.56;101717.19;5314021;28;20028;-68
2023/06/15 00:13:31;;;;;;;5.38;3.30;;;;;;;19.30;49.54;101716.84;5312034;28;20011;-69
2023/06/15 00:16:02;;;;;;;8.07;3.37;;;;;;;19.25;49.97;101713.88;5313173;28;20027;-69
2023/06/15 00:18:37;;;;;;;7.75;2.75;;;;;;;19.22;49.48;101714.19;5314311;28;20059;-69
2023/06/15 00:21:09;;;;;;;5.20;3.10;;;;;;;19.06;50.52;101705.22;5308063;28;20039;-69
2023/06/15 00:23:41;;;;;;;4.90;3.00;;;;;;;19.07;50.78;101706.06;5313010;28;20469;-70
2023/06/15 00:26:13;;;;;;;3.75;3.10;;;;;;;19.09;51.11;101717.31;5313379;28;20026;-70
2023/06/15 00:28:44;;;;;;;5.27;3.07;;;;;;;19.09;50.74;101722.63;5312358;28;20028;-70
2023/06/15 00:31:15;;;;;;;10.33;3.53;;;;;;;19.03;51.30;101718.00;5310165;28;20019;-70
2023/06/15 00:33:47;;;;;;;6.32;3.35;;;;;;;18.98;50.89;101712.34;5313332;28;20028;-70
2023/06/15 00:36:18;;;;;;;8.18;3.50;;;;;;;19.13;50.27;101724.84;5311055;28;20036;-69
2023/06/15 00:38:50;;;;;;;5.65;3.38;;;;;;;19.00;50.52;101720.97;5310807;28;20028;-68
2023/06/15 00:41:21;;;;;;;4.80;3.17;;;;;;;18.95;51.37;101726.78;5312130;28;20023;-69
2023/06/15 00:43:53;;;;;;;4.47;3.43;;;;;;;18.90;51.23;101729.94;5313739;28;20115;-69
2023/06/15 00:46:24;;;;;;;5.97;3.33;;;;;;;18.87;51.73;101732.09;5312856;28;20023;-69
2023/06/15 00:48:56;;;;;;;7.60;3.43;;;;;;;18.81;51.59;101736.22;5311810;28;20031;-69
2023/06/15 00:51:27;;;;;;;4.05;3.10;;;;;;;18.83;52.41;101725.44;5311197;28;20567;-69
2023/06/15 00:53:59;;;;;;;8.68;3.30;;;;;;;18.73;52.56;101728.22;5311753;27;20026;-69
2023/06/15 00:56:31;;;;;;;5.25;2.92;;;;;;;18.72;52.24;101734.53;5310208;28;20115;-69
2023/06/15 00:59:03;;;;;;;5.47;3.40;;;;;;;18.66;52.73;101729.84;5313598;28;20039;-68
2023/06/15 01:01:34;;;;;;;5.13;3.58;;;;;;;18.61;53.42;101727.66;5310138;28;20657;-69
2023/06/15 01:04:06;;;;;;;4.57;3.15;;;;;;;18.61;53.58;101727.66;5308131;28;21178;-69
2023/06/15 01:06:41;;;;;;;3.23;2.93;;;;;;;18.51;54.42;101729.63;5310535;28;20110;-69
2023/06/15 01:09:13;;;;;;;4.45;3.40;;;;;;;18.43;54.76;101734.91;5311411;28;20039;-69
2023/06/15 01:11:46;;;;;;;3.97;3.50;;;;;;;18.47;54.30;101726.47;5311543;28;20019;-69
2023/06/15 01:14:17;;;;;;;9.90;3.60;;;;;;;18.38;55.31;101729.25;5313062;28;20146;-69
2023/06/15 01:16:53;;;;;;;5.30;3.40;;;;;;;18.44;55.02;101725.94;5312386;28;20224;-69
2023/06/15 01:19:39;;;;;;;5.38;3.30;;;;;;;18.57;54.04;101723.69;5311823;28;20032;-69
2023/06/15 01:22:19;;;;;;;5.72;3.00;;;;;;;18.36;55.48;101728.56;5311694;28;20118;-69
2023/06/15 01:25:03;;;;;;;4.82;3.40;;;;;;;18.39;55.41;101733.56;5307884;28;20028;-68
2023/06/15 01:27:36;;;;;;;4.13;2.95;;;;;;;18.22;56.53;101733.50;5309079;28;20578;-68
2023/06/15 01:30:09;;;;;;;;;;;;;;;18.97;50.95;101732.75;5288419;28;20032;-69
2023/06/15 01:32:40;;;;;;;4.35;3.40;;;;;;;18.17;56.52;101735.78;5311826;28;19920;-69
2023/06/15 01:35:12;;;;;;;6.30;3.63;;;;;;;18.16;56.78;101739.41;5313462;28;20391;-69
2023/06/15 01:37:43;;;;;;;5.25;3.25;;;;;;;18.03;57.65;101744.31;5310881;28;20133;-69
2023/06/15 01:40:16;;;;;;;3.70;2.90;;;;;;;18.07;57.48;101736.88;5312147;28;20118;-68
2023/06/15 01:42:49;;;;;;;5.82;3.75;;;;;;;17.95;58.40;101742.44;5309190;28;20038;-68
2023/06/15 01:45:21;;;;;;;5.25;3.53;;;;;;;17.89;59.60;101747.56;5313358;28;20092;-69
2023/06/15 01:47:53;;;;;;;4.32;3.20;;;;;;;17.84;59.67;101741.88;5310683;28;20062;-69
2023/06/15 01:50:25;;;;;;;4.28;3.70;;;;;;;17.84;59.36;101741.88;5312545;28;20035;-69
2023/06/15 01:52:56;;;;;;;4.68;3.50;;;;;;;17.79;59.72;101739.69;5312223;28;20019;-69
2023/06/15 01:55:28;;;;;;;7.20;4.30;;;;;;;17.73;60.74;101737.66;5280095;28;20582;-68
2023/06/15 01:57:59;;;;;;;5.60;4.15;;;;;;;17.69;60.86;101742.44;5261953;28;20016;-68
2023/06/15 02:00:31;;;;;;;4.47;3.60;;;;;;;17.73;60.39;101742.94;5271342;28;20074;-69
2023/06/15 02:03:02;;;;;;;6.70;3.50;;;;;;;17.71;60.63;101744.91;5282869;28;20085;-69
2023/06/15 02:05:39;;;;;;;6.85;3.80;;;;;;;17.71;60.18;101750.22;5259971;28;20063;-69
2023/06/15 02:08:11;;;;;;;7.55;3.53;;;;;;;17.57;61.38;101748.94;5254388;28;20029;-69
2023/06/15 02:10:42;;;;;;;5.13;3.72;;;;;;;17.64;60.76;101742.03;5259526;28;20070;-68
2023/06/15 02:13:14;;;;;;;6.22;3.67;;;;;;;17.51;61.17;101739.81;5237547;28;20113;-68
2023/06/15 02:15:45;;;;;;;8.38;4.25;;;;;;;17.54;61.30;101741.31;5281040;28;20046;-69
2023/06/15 02:18:16;;;;;;;5.22;3.63;;;;;;;17.46;62.82;101742.09;5250683;28;20036;-69
2023/06/15 02:20:48;;;;;;;6.38;3.88;;;;;;;17.58;62.52;101744.47;5269641;28;20039;-68
2023/06/15 02:23:19;;;;;;;6.80;3.57;;;;;;;17.40;64.01;101752.47;5279162;28;20531;-69
2023/06/15 02:25:51;;;;;;;6.32;3.50;;;;;;;17.45;63.53;101734.28;5260897;28;20022;-68
2023/06/15 02:28:22;;;;;;;6.18;3.80;;;;;;;17.39;64.69;101745.50;5268380;28;20023;-68
2023/06/15 02:30:53;;;;;;;4.15;3.50;;;;;;;17.34;64.08;101753.88;5268773;28;20110;-68
2023/06/15 02:33:25;;;;;;;4.45;3.60;;;;;;;17.26;64.21;101752.00;5264754;28;20026;-68
2023/06/15 02:35:56;;;;;;;5.75;3.70;;;;;;;17.32;64.96;101757.69;5274688;28;20028;-69
2023/06/15 02:38:28;;;;;;;5.53;3.50;;;;;;;17.17;66.45;101752.91;5271520;28;20036;-69
2023/06/15 02:40:59;;;;;;;3.95;3.55;;;;;;;17.19;64.91;101763.34;5258585;28;20018;-68
2023/06/15 02:43:31;;;;;;;4.45;3.22;;;;;;;17.11;67.04;101764.09;5267618;28;20072;-69
2023/06/15 02:46:02;;;;;;;5.27;3.17;;;;;;;17.06;66.79;101760.25;5270227;28;20033;-68
2023/06/15 02:48:34;;;;;;;4.82;3.33;;;;;;;16.98;67.33;101759.19;5272297;28;20304;-67
2023/06/15 02:51:05;;;;;;;6.70;3.40;;;;;;;16.91;68.25;101760.75;5256678;28;21101;-68
2023/06/15 02:53:36;;;;;;;5.45;3.38;;;;;;;16.90;67.92;101756.44;5250179;28;20030;-68
2023/06/15 02:56:09;;;;;;;4.20;3.40;;;;;;;16.90;68.05;101756.44;5309249;28;20134;-69
2023/06/15 02:58:42;;;;;;;5.50;3.07;;;;;;;16.88;68.52;101757.56;5310027;28;20027;-69
2023/06/15 03:01:15;;;;;;;6.53;3.38;;;;;;;16.84;68.87;101764.16;5307863;28;20371;-68
2023/06/15 03:03:46;;;;;;;5.10;3.15;;;;;;;16.76;69.18;101765.72;5308243;28;20059;-69
2023/06/15 03:06:18;;;;;;;6.95;4.05;;;;;;;16.71;69.85;101762.66;5308514;28;20171;-69
2023/06/15 03:08:50;;;;;;;5.05;3.65;;;;;;;16.67;71.66;101769.22;5312182;28;20039;-68
2023/06/15 03:11:22;;;;;;;5.78;3.40;;;;;;;16.63;71.38;101764.34;5310256;28;20091;-68
2023/06/15 03:13:54;;;;;;;7.13;4.10;;;;;;;16.60;72.23;101768.16;5310719;28;20150;-68
2023/06/15 03:16:25;;;;;;;6.93;3.95;;;;;;;16.63;72.14;101764.34;5309894;28;20034;-68
2023/06/15 03:18:57;;;;;;;6.05;3.65;;;;;;;16.53;73.78;101765.25;5307401;28;20463;-68
2023/06/15 03:21:29;;;;;;;7.93;3.92;;;;;;;16.52;72.83;101768.88;5308332;28;20404;-69
2023/06/15 03:24:00;;;;;;;6.38;4.47;;;;;;;16.45;74.13;101772.25;5310065;28;20652;-71
2023/06/15 03:26:33;;;;;;;6.90;4.28;;;;;;;16.58;71.29;101763.97;5310282;28;20450;-69
2023/06/15 03:29:04;;;;;;;5.05;3.72;;;;;;;16.57;72.89;101765.78;5309225;28;20055;-69
2023/06/15 03:31:40;;;;;;;4.35;3.53;;;;;;;16.57;72.12;101770.25;5311427;28;20022;-68
2023/06/15 03:34:12;;;;;;;8.48;4.47;;;;;;;16.51;73.55;101764.56;5309782;28;20084;-68
2023/06/15 03:36:43;;;;;;;6.78;4.00;;;;;;;16.58;73.18;101770.09;5306084;28;20024;-69
2023/06/15 03:39:14;;;;;;;5.55;4.03;;;;;;;16.55;72.82;101767.72;5309200;28;20110;-68
2023/06/15 03:41:46;;;;;;;7.00;3.80;;;;;;;16.59;73.23;101769.09;5309690;28;20038;-69
2023/06/15 03:44:17;;;;;;;5.50;4.45;;;;;;;16.59;73.38;101770.91;5307250;28;20024;-68
2023/06/15 03:46:48;;;;;;;5.25;3.78;;;;;;;16.62;72.78;101768.81;5310394;28;20469;-68
2023/06/15 03:49:20;;;;;;;8.38;5.07;;;;;;;16.59;74.68;101770.91;5310279;28;20051;-68
2023/06/15 03:51:51;;;;;;;5.20;4.28;;;;;;;16.66;73.64;101770.19;5301958;28;20485;-69
2023/06/15 03:54:22;;;;;;;5.00;4.50;;;;;;;16.67;73.22;101758.66;5309277;28;20101;-68
2023/06/15 03:56:53;;;;;;;6.05;5.00;;;;;;;16.72;72.89;101764.31;5309246;28;20046;-68
2023/06/15 03:59:25;;;;;;;7.93;5.28;;;;;;;16.75;73.34;101768.53;5310915;28;20019;-68
2023/06/15 04:01:56;;;;;;;7.95;4.85;;;;;;;16.82;72.38;101774.91;5309429;28;20059;-68
2023/06/15 04:04:27;;;;;;;6.57;5.50;;;;;;;16.91;71.93;101783.75;5310554;28;20396;-68
2023/06/15 04:06:59;;;;;;;7.05;5.00;;;;;;;16.88;71.95;101776.94;5314434;28;20675;-68
2023/06/15 04:09:30;;;;;;;7.18;5.00;;;;;;;16.97;71.99;101783.13;5309509;28;20028;-68
2023/06/15 04:12:01;;;;;;;6.60;4.72;;;;;;;16.93;72.98;101782.63;5312695;28;20365;-68
2023/06/15 04:14:33;;;;;;;5.47;4.97;;;;;;;16.96;72.23;101778.84;5313569;28;20587;-68
2023/06/15 04:17:04;;;;;;;6.97;4.70;;;;;;;17.01;72.34;101781.88;5311563;28;20019;-68
2023/06/15 04:19:36;;;;;;;5.97;5.22;;;;;;;17.07;72.22;101786.56;5312978;28;20019;-68
2023/06/15 04:22:07;;;;;;;7.18;4.88;;;;;;;17.13;72.26;101791.28;5295368;28;20096;-68
2023/06/15 04:24:38;;;;;;;7.15;5.00;;;;;;;17.15;72.20;101796.41;5311081;28;20039;-68
2023/06/15 04:27:12;;;;;;;6.93;5.40;;;;;;;17.18;70.86;101794.28;5313156;28;20425;-68
2023/06/15 04:29:45;;;;;;;9.38;5.32;;;;;;;17.21;70.50;101791.34;5312517;28;20028;-68
2023/06/15 04:32:17;;;;;;;9.02;5.47;;;;;;;17.26;71.33;101794.38;5310270;28;20055;-68
2023/06/15 04:34:49;;;;;;;8.95;5.68;;;;;;;17.33;71.18;101807.03;5310909;28;20106;-68
2023/06/15 04:37:20;;;;;;;8.55;6.10;;;;;;;17.37;70.65;101805.72;5314112;28;20032;-68
2023/06/15 04:39:52;;;;;;;7.35;6.60;;;;;;;17.42;71.67;101806.09;5312393;28;20097;-68
2023/06/15 04:42:23;;;;;;;8.32;6.25;;;;;;;17.42;70.35;101809.56;5309167;28;20027;-68
2023/06/15 04:44:55;;;;;;;7.57;6.80;;;;;;;17.46;70.31;101803.03;5313062;28;20027;-68
2023/06/15 04:47:26;;;;;;;8.70;6.55;;;;;;;17.59;69.78;101805.28;5310668;28;20076;-67
2023/06/15 04:49:57;;;;;;;10.52;7.25;;;;;;;17.61;69.50;101808.59;5310181;28;20039;-68
2023/06/15 04:52:29;;;;;;;6.75;6.05;;;;;;;17.72;68.91;101810.19;5310485;28;20467;-68
2023/06/15 04:55:00;;;;;;;9.07;6.57;;;;;;;17.77;68.33;101812.38;5312081;28;20092;-68
2023/06/15 04:57:31;;;;;;;7.22;6.00;;;;;;;17.80;69.32;101815.56;5311480;28;20019;-69
2023/06/15 05:00:06;;;;;;;8.10;6.47;;;;;;;17.86;68.31;101819.44;5308858;28;20057;-68
2023/06/15 05:02:38;;;;;;;8.65;6.10;;;;;;;17.89;67.57;101806.72;5307950;28;20066;-68
2023/06/15 05:05:11;;;;;;;10.60;6.45;;;;;;;17.96;66.82;101805.09;5297349;28;20123;-68
2023/06/15 05:07:42;;;;;;;;;;;;;;;18.57;62.95;101811.25;5310878;28;20015;-68
2023/06/15 05:10:13;;;;;;;7.83;6.63;;;;;;;18.10;64.87;101811.66;5306474;28;19923;-68
2023/06/15 05:12:44;;;;;;;11.25;7.15;;;;;;;18.20;65.16;101811.56;5310610;28;20030;-69
2023/06/15 05:15:16;;;;;;;10.43;6.70;;;;;;;18.21;66.44;101811.38;5312613;28;20024;-69
2023/06/15 05:17:47;;;;;;;7.80;6.95;;;;;;;18.33;65.47;101813.78;5308290;28;20019;-68
2023/06/15 05:20:18;;;;;;;7.72;6.95;;;;;;;18.30;66.67;101820.25;5310339;28;20126;-69
2023/06/15 05:22:50;;;;;;;10.45;7.40;;;;;;;18.34;65.15;101812.81;5312017;28;20035;-69
2023/06/15 05:25:22;;;;;;;9.48;6.50;;;;;;;18.31;65.32;101811.28;5312344;28;20093;-68
2023/06/15 05:27:54;;;;;;;9.15;6.35;;;;;;;18.43;65.91;101810.03;5309994;28;20027;-68
2023/06/15 05:30:26;;;;;;;8.93;6.65;;;;;;;18.48;64.68;101815.69;5314753;28;20102;-69
2023/06/15 05:32:58;;;;;;;8.43;7.35;;;;;;;18.57;64.11;101821.88;5315271;28;20103;-68
2023/06/15 05:35:29;;;;;;;9.13;6.90;;;;;;;18.62;63.11;101819.56;5312320;28;20103;-69
2023/06/15 05:38:01;;;;;;;8.43;7.40;;;;;;;18.67;63.65;101822.56;5312099;28;20114;-68
2023/06/15 05:40:32;;;;;;;8.63;7.45;;;;;;;18.72;63.64;101822.16;5314895;28;20833;-69
2023/06/15 05:43:03;;;;;;;9.02;7.95;;;;;;;18.78;64.54;101823.31;5314169;28;20046;-69
2023/06/15 05:45:34;;;;;;;11.88;7.93;;;;;;;18.87;62.76;101833.81;5315271;28;20114;-69
2023/06/15 05:48:06;;;;;;;10.05;7.43;;;;;;;18.94;62.03;101823.34;5315915;28;20019;-68
2023/06/15 05:50:37;;;;;;;9.23;7.88;;;;;;;19.05;62.35;101830.22;5312863;28;20026;-69
2023/06/15 05:53:08;;;;;;;8.95;8.00;;;;;;;19.16;63.09;101827.25;5311811;28;20073;-69
2023/06/15 05:55:39;;;;;;;10.35;8.02;;;;;;;19.24;62.82;101821.13;5313106;28;20043;-68
2023/06/15 05:58:11;;;;;;;12.05;8.55;;;;;;;19.38;61.01;101820.50;5312117;28;20023;-68
2023/06/15 06:00:42;;;;;;;11.88;8.45;;;;;;;19.49;61.39;101822.00;5310657;28;20023;-68
2023/06/15 06:03:13;;;;;;;12.77;8.40;;;;;;;19.56;60.30;101833.63;5312266;28;20023;-68
2023/06/15 06:05:45;;;;;;;12.65;8.57;;;;;;;19.62;61.07;101823.22;5315296;28;20107;-68
2023/06/15 06:08:17;;;;;;;15.35;8.90;;;;;;;19.69;60.80;101823.34;5309501;28;20118;-68
2023/06/15 06:10:48;;;;;;;13.73;8.93;;;;;;;19.80;60.00;101816.88;5314640;28;20384;-69
2023/06/15 06:13:19;;;;;;;11.07;7.63;;;;;;;19.88;59.93;101819.53;5313403;28;20024;-69
2023/06/15 06:15:51;;;;;;;9.07;7.57;;;;;;;20.02;59.05;101823.34;5312296;28;20032;-69
2023/06/15 06:18:22;;;;;;;10.00;8.32;;;;;;;20.10;60.05;101818.84;5313582;28;20024;-68
2023/06/15 06:20:53;;;;;;;12.07;8.80;;;;;;;20.28;58.75;101823.97;5311994;28;20465;-68
2023/06/15 06:23:24;;;;;;;9.15;8.27;;;;;;;20.42;57.17;101823.28;5312858;28;20053;-68
2023/06/15 06:25:56;;;;;;;9.13;8.23;;;;;;;20.57;56.65;101815.44;5313277;28;20027;-68
2023/06/15 06:28:27;;;;;;;12.03;8.43;;;;;;;20.73;57.31;101811.88;5301577;28;20494;-68
2023/06/15 06:30:58;;;;;;;9.47;7.93;;;;;;;20.88;57.01;101819.97;5308587;28;20031;-68
2023/06/15 06:33:29;;;;;;;9.57;7.93;;;;;;;21.00;56.15;101821.22;5312315;28;20026;-69
2023/06/15 06:36:01;;;;;;;10.37;7.57;;;;;;;21.19;54.08;101821.78;5313942;28;20020;-69
2023/06/15 06:38:32;;;;;;;10.30;7.87;;;;;;;21.38;54.45;101821.34;5311280;28;20098;-68
2023/06/15 06:41:04;;;;;;;13.90;7.77;;;;;;;21.45;54.73;101816.16;5309854;28;20035;-68
2023/06/15 06:43:36;;;;;;;;;;;;;;;22.04;52.38;101821.63;5307175;28;20763;-68
2023/06/15 06:46:07;;;;;;;8.97;6.63;;;;;;;21.74;51.26;101815.41;5312089;28;19911;-69
2023/06/15 06:48:39;;;;;;;8.13;6.67;;;;;;;21.92;49.95;101823.91;5306915;28;20030;-69
2023/06/15 06:51:10;;;;;;;14.80;6.63;;;;;;;22.06;52.05;101815.09;5309155;28;20102;-69
2023/06/15 06:53:41;;;;;;;9.40;6.23;;;;;;;22.18;49.93;101823.53;5310888;28;20038;-69
2023/06/15 06:56:13;;;;;;;8.20;6.00;;;;;;;22.30;49.72;101826.56;5308908;28;20039;-70
2023/06/15 06:58:44;;;;;;;11.10;6.17;;;;;;;22.41;47.51;101827.94;5310215;28;20062;-70
2023/06/15 07:01:15;;;;;;;9.70;5.60;;;;;;;22.53;48.29;101821.94;5312848;28;20027;-70
2023/06/15 07:03:47;;;;;;;11.13;5.53;;;;;;;22.74;48.57;101823.06;5311563;28;20085;-70
2023/06/15 07:06:18;;;;;;;9.37;5.53;;;;;;;22.90;47.53;101824.69;5309082;28;20474;-70
2023/06/15 07:08:49;;;;;;;9.00;5.33;;;;;;;23.02;47.72;101826.69;5314377;28;20380;-70
2023/06/15 07:11:21;;;;;;;10.07;5.73;;;;;;;23.28;45.55;101820.81;5312199;28;20023;-70
2023/06/15 07:13:53;;;;;;;11.57;6.40;;;;;;;23.45;45.93;101820.53;5310080;28;20031;-70
2023/06/15 07:16:24;;;;;;;11.50;5.63;;;;;;;23.54;42.88;101824.75;5312722;28;20019;-70
2023/06/15 07:18:56;;;;;;;10.60;6.07;;;;;;;23.72;44.41;101824.34;5310891;28;20184;-70
2023/06/15 07:21:28;;;;;;;10.45;6.47;;;;;;;23.72;43.96;101825.16;5309440;28;20027;-69
2023/06/15 07:23:59;;;;;;;10.13;4.93;;;;;;;24.04;43.08;101828.28;5313056;28;20022;-71
2023/06/15 07:26:31;;;;;;;6.77;4.50;;;;;;;24.11;41.48;101822.97;5313716;28;21120;-70
2023/06/15 07:29:02;;;;;;;6.47;4.40;;;;;;;24.25;41.38;101828.22;5310932;28;20464;-70
2023/06/15 07:31:33;;;;;;;9.00;4.13;;;;;;;24.40;41.49;101835.34;5309382;28;20532;-70
2023/06/15 07:34:05;;;;;;;9.87;4.37;;;;;;;24.53;39.84;101832.72;5313209;28;20103;-70
2023/06/15 07:36:37;;;;;;;7.35;3.50;;;;;;;24.65;39.23;101839.16;5314594;28;20023;-70
2023/06/15 07:39:09;;;;;;;7.72;3.50;;;;;;;24.80;39.67;101841.72;5313613;28;20496;-71
2023/06/15 07:41:40;;;;;;;5.80;3.53;;;;;;;24.97;39.16;101832.31;5317691;28;20020;-70
2023/06/15 07:44:12;;;;;;;5.40;3.17;;;;;;;25.09;37.92;101837.91;5311359;28;20448;-70
2023/06/15 07:46:44;;;;;;;6.03;3.08;;;;;;;25.12;38.28;101836.72;5316352;28;20089;-70
2023/06/15 07:49:15;;;;;;;3.97;3.23;;;;;;;25.28;38.06;101841.69;5314868;28;20031;-70
2023/06/15 07:51:46;;;;;;;5.27;3.43;;;;;;;25.42;37.96;101846.06;5315926;28;20457;-70
2023/06/15 07:54:18;;;;;;;7.57;4.03;;;;;;;25.31;37.45;101848.53;5316559;28;20060;-71
2023/06/15 07:56:50;;;;;;;7.30;3.70;;;;;;;25.46;37.19;101830.38;5315204;28;20036;-71
2023/06/15 07:59:21;;;;;;;8.20;3.93;;;;;;;25.69;35.99;101838.03;5315475;28;20039;-70
2023/06/15 08:01:52;;;;;;;10.73;4.10;;;;;;;25.73;35.96;101836.59;5314222;28;20294;-70
2023/06/15 08:04:23;;;;;;;6.00;3.50;;;;;;;25.89;37.00;101838.06;5317299;28;20035;-70
2023/06/15 08:06:54;;;;;;;8.07;3.17;;;;;;;25.99;36.31;101843.84;5314872;28;20027;-70
2023/06/15 08:09:26;;;;;;;7.20;3.30;;;;;;;25.99;35.78;101837.63;5297755;28;20040;-70
2023/06/15 08:11:57;;;;;;;9.10;2.87;;;;;;;26.29;35.55;101836.16;5315772;28;20031;-70
2023/06/15 08:14:28;;;;;;;4.53;2.87;;;;;;;26.39;31.92;101841.06;5316253;28;20023;-71
2023/06/15 08:17:00;;;;;;;7.67;3.23;;;;;;;26.37;32.88;101835.91;5312868;28;20453;-71
2023/06/15 08:19:31;;;;;;;8.80;2.83;;;;;;;26.52;33.30;101829.47;5314208;28;20051;-70
2023/06/15 08:22:02;;;;;;;9.33;3.00;;;;;;;26.71;34.03;101836.66;5316469;28;20028;-70
2023/06/15 08:24:34;;;;;;;6.37;2.83;;;;;;;26.90;32.33;101838.44;5314446;28;20035;-70
2023/06/15 08:27:05;;;;;;;5.30;2.80;;;;;;;26.74;31.94;101836.22;5314428;28;20098;-71
2023/06/15 08:29:37;;;;;;;6.40;2.70;;;;;;;26.80;31.09;101830.00;5314216;28;20035;-70
2023/06/15 08:32:13;;;;;;;7.93;3.33;;;;;;;26.81;30.91;101838.88;5316623;28;20361;-70
2023/06/15 08:34:44;;;;;;;7.68;2.95;;;;;;;26.99;31.57;101841.69;5312816;28;20032;-71
2023/06/15 08:37:16;;;;;;;5.97;2.97;;;;;;;27.15;31.72;101838.53;5315923;28;20525;-70
2023/06/15 08:39:47;;;;;;;5.87;2.80;;;;;;;27.10;31.40;101829.44;5317173;28;20330;-71
2023/06/15 08:42:21;;;;;;;7.03;3.03;;;;;;;27.10;30.25;101830.25;5315968;28;20110;-70
2023/06/15 08:44:54;;;;;;;5.75;2.63;;;;;;;27.31;31.28;101833.66;5313597;28;20058;-70
2023/06/15 08:47:26;;;;;;;4.65;2.50;;;;;;;27.46;30.69;101830.66;5315506;28;20143;-71
2023/06/15 08:50:00;;;;;;;6.47;3.50;;;;;;;27.56;30.09;101828.31;5312019;28;20236;-71
2023/06/15 08:52:34;;;;;;;4.57;2.88;;;;;;;27.55;30.21;101821.28;5312159;28;20392;-70
2023/06/15 08:55:08;;;;;;;5.28;2.80;;;;;;;27.83;30.10;101837.03;5312914;28;20492;-71
2023/06/15 08:57:40;;;;;;;6.57;2.70;;;;;;;27.81;29.25;101822.97;5314488;28;20034;-70
2023/06/15 09:00:12;;;;;;;5.03;2.57;;;;;;;28.04;29.22;101831.25;5314270;28;20020;-71
2023/06/15 09:02:46;;;;;;;5.90;3.05;;;;;;;27.94;28.83;101830.91;5314222;28;20115;-71
2023/06/15 09:05:17;;;;;;;7.65;2.78;;;;;;;27.90;29.73;101832.41;5311939;28;20434;-71
2023/06/15 09:07:48;;;;;;;6.80;2.83;;;;;;;27.99;29.14;101825.66;5315312;28;20027;-71
2023/06/15 09:10:22;;;;;;;5.43;2.90;;;;;;;27.99;29.53;101831.06;5313585;28;20115;-71
2023/06/15 09:12:55;;;;;;;4.32;2.70;;;;;;;28.01;29.20;101820.09;5311847;28;20537;-70
2023/06/15 09:15:28;;;;;;;4.32;2.72;;;;;;;28.16;28.96;101823.25;5314475;28;20023;-70
2023/06/15 09:18:01;;;;;;;5.68;3.05;;;;;;;27.89;30.00;101828.88;5309034;28;20092;-71
2023/06/15 09:20:37;;;;;;;4.38;2.83;;;;;;;28.19;29.29;101822.81;5313784;28;20387;-70
2023/06/15 09:23:10;;;;;;;5.63;2.72;;;;;;;28.15;29.03;101829.69;5310477;28;20481;-70
2023/06/15 09:25:51;;;;;;;6.38;2.78;;;;;;;28.27;28.52;101822.50;5314668;28;20039;-71
2023/06/15 09:28:26;;;;;;;5.28;2.22;;;;;;;28.35;27.42;101832.97;5316159;28;20049;-70
2023/06/15 09:30:59;;;;;;;6.55;3.20;;;;;;;28.40;27.81;101831.50;5303654;28;20031;-71
2023/06/15 09:33:30;;;;;;;4.47;3.10;;;;;;;28.41;27.42;101836.66;5309349;28;20019;-71
2023/06/15 09:36:05;;;;;;;5.27;2.53;;;;;;;28.79;28.51;101832.88;5311894;28;20431;-71
2023/06/15 09:38:41;;;;;;;4.32;3.03;;;;;;;28.55;27.77;101824.69;5310835;28;20105;-70
2023/06/15 09:41:15;;;;;;;5.40;2.85;;;;;;;28.43;27.67;101829.19;5310801;28;20469;-70
2023/06/15 09:43:47;;;;;;;9.57;3.00;;;;;;;28.50;28.41;101823.72;5312060;28;20082;-71
2023/06/15 09:46:20;;;;;;;5.45;2.50;;;;;;;28.89;27.49;101824.25;5312984;28;20438;-71
2023/06/15 09:48:51;;;;;;;4.82;2.70;;;;;;;28.97;26.40;101805.06;5313331;28;20043;-71
2023/06/15 09:51:27;;;;;;;3.70;2.83;;;;;;;29.64;26.89;101819.22;5312195;28;20388;-71
2023/06/15 09:54:02;;;;;;;5.40;2.88;;;;;;;29.59;27.25;101824.53;5310143;28;20023;-71
2023/06/15 09:56:36;;;;;;;6.72;3.00;;;;;;;29.62;26.42;101826.72;5305067;28;20050;-71
2023/06/15 09:59:07;;;;;;;5.03;2.90;;;;;;;29.42;25.57;101820.81;5313267;28;20030;-71
2023/06/15 10:01:41;;;;;;;6.80;2.90;;;;;;;29.08;26.37;101828.59;5308437;28;20087;-69
2023/06/15 10:04:13;;;;;;;5.78;2.80;;;;;;;28.80;27.07;101827.28;5310574;28;20028;-69
2023/06/15 10:06:47;;;;;;;;;;;;;;;29.77;26.57;101821.69;5313696;28;20027;-69
2023/06/15 10:09:24;;;;;;;6.07;2.60;;;;;;;28.84;27.30;101828.47;5310594;28;20292;-69
2023/06/15 10:12:02;;;;;;;5.63;3.08;;;;;;;28.60;27.82;101827.53;5308012;28;20488;-69
2023/06/15 10:14:48;;;;;;;5.20;2.60;;;;;;;28.50;28.35;101824.53;5312071;28;20019;-69
2023/06/15 10:17:32;;;;;;;8.20;3.03;;;;;;;28.21;28.38;101826.06;5313151;28;20050;-69
2023/06/15 10:20:17;;;;;;;7.57;2.83;;;;;;;28.06;27.98;101825.63;5298218;28;20034;-69
2023/06/15 10:23:10;;;;;;;8.13;3.05;;;;;;;28.67;28.21;101824.75;5313375;28;20035;-68
2023/06/15 10:25:44;;;;;;;6.53;2.60;;;;;;;28.52;28.06;101825.13;5310687;28;20485;-68
2023/06/15 10:28:23;;;;;;;6.32;2.50;;;;;;;28.23;27.86;101824.00;5310476;28;20031;-69
2023/06/15 10:31:20;;;;;;;4.15;2.60;;;;;;;28.47;28.26;101822.28;5309711;28;20073;-71
2023/06/15 10:34:03;;;;;;;4.88;3.17;;;;;;;28.11;28.51;101815.84;5311296;28;20059;-71
2023/06/15 10:36:47;;;;;;;6.45;3.15;;;;;;;28.21;28.46;101815.28;5311079;28;20055;-71
2023/06/15 10:39:25;;;;;;;5.20;3.05;;;;;;;28.49;27.90;101819.38;5308795;28;20031;-71
2023/06/15 10:41:57;;;;;;;5.28;2.97;;;;;;;28.85;27.04;101822.00;5310726;28;20020;-69
2023/06/15 10:44:32;;;;;;;11.20;2.92;;;;;;;29.16;26.09;101817.47;5308588;28;20114;-68
2023/06/15 10:47:10;;;;;;;4.63;2.83;;;;;;;29.37;26.55;101818.00;5311423;28;20039;-69
2023/06/15 10:49:50;;;;;;;5.88;3.10;;;;;;;29.72;26.37;101821.59;5313531;28;20480;-69
2023/06/15 10:52:21;;;;;;;7.40;2.70;;;;;;;29.91;25.87;101813.38;5311029;28;20480;-69
2023/06/15 10:54:52;;;;;;;3.50;2.50;;;;;;;29.77;24.24;101815.47;5311959;28;20050;-69
2023/06/15 10:57:28;;;;;;;4.77;2.47;;;;;;;29.95;25.63;101818.06;5314006;28;20020;-68
2023/06/15 11:00:00;;;;;;;5.63;3.00;;;;;;;29.90;26.01;101809.84;5306316;28;20023;-68
2023/06/15 11:02:31;;;;;;;6.27;2.83;;;;;;;30.04;25.53;101815.81;5303501;28;20031;-68
2023/06/15 11:05:12;;;;;;;7.40;3.30;;;;;;;30.24;25.83;101813.59;5311654;28;20507;-69
2023/06/15 11:07:47;;;;;;;7.43;3.08;;;;;;;30.17;25.44;101821.00;5312325;28;20480;-68
2023/06/15 11:10:37;;;;;;;5.63;3.47;;;;;;;30.33;25.80;101813.22;5309745;28;20038;-68
2023/06/15 11:13:09;;;;;;;6.43;2.50;;;;;;;29.92;26.06;101815.00;5313517;28;20023;-69
2023/06/15 11:15:41;;;;;;;6.33;3.03;;;;;;;29.86;25.06;101819.47;5314650;28;20054;-68
2023/06/15 11:18:14;;;;;;;;;;;;;;;30.90;25.05;101822.22;5312696;28;20378;-68
2023/06/15 11:20:51;;;;;;;6.45;2.67;;;;;;;30.21;25.16;101821.38;5312145;28;19922;-68
2023/06/15 11:23:24;;;;;;;9.57;2.90;;;;;;;30.05;25.74;101812.88;5313674;28;20568;-69
2023/06/15 11:25:55;;;;;;;5.07;2.55;;;;;;;30.17;25.54;101810.19;5314609;28;20039;-68
2023/06/15 11:28:31;;;;;;;6.30;3.30;;;;;;;30.15;25.61;101812.28;5312809;28;20024;-68
2023/06/15 11:31:03;;;;;;;5.07;2.78;;;;;;;30.30;25.35;101811.81;5313386;28;20030;-68
2023/06/15 11:33:36;;;;;;;7.82;3.15;;;;;;;30.21;24.35;101811.38;5312957;28;20023;-68
2023/06/15 11:36:10;;;;;;;6.85;2.80;;;;;;;30.45;24.53;101811.31;5314679;28;20030;-68
2023/06/15 11:38:41;;;;;;;4.78;2.75;;;;;;;30.64;24.26;101799.25;5309404;28;20039;-68
2023/06/15 11:41:13;;;;;;;6.60;2.60;;;;;;;30.81;25.00;101802.06;5313309;28;20024;-69
2023/06/15 11:43:48;;;;;;;4.97;3.20;;;;;;;30.78;24.62;101795.22;5312717;28;20035;-69
2023/06/15 11:46:23;;;;;;;7.10;3.10;;;;;;;30.93;25.13;101797.41;5313310;28;20538;-68
2023/06/15 11:48:56;;;;;;;4.85;3.20;;;;;;;30.89;24.85;101798.94;5310998;28;20484;-68